Time;durP1;ratioP1;P1;durP2;ratioP2;P2;SDS_P1;SDS_P2;PMS_P1;PMS_P2;Temp;Humidity;BMP_temperature;BMP_pressure;BME280_temperature;BME280_humidity;BME280_pressure;Samples;Min_cycle;Max_cycle;Signal;HPM_P1;HPM_P2
2023/07/20 00:01:23;;;;;;;2.05;1.10;;;;;;;13.78;94.14;98085.84;5070452;28;20068;-37
2023/07/20 00:03:54;;;;;;;2.60;1.23;;;;;;;13.76;94.46;98098.22;5051337;28;20827;-38
2023/07/20 00:06:22;;;;;;;7.75;1.02;;;;;;;13.72;94.64;98087.13;5067656;28;20137;-42
2023/07/20 00:08:48;;;;;;;2.10;1.10;;;;;;;13.50;94.66;98055.69;5035884;28;20040;-38
2023/07/20 00:11:14;;;;;;;3.78;1.05;;;;;;;13.68;94.89;98093.53;5070266;28;20048;-38
2023/07/20 00:13:40;;;;;;;3.45;1.10;;;;;;;13.66;95.31;98099.81;5069984;28;20447;-37
2023/07/20 00:16:07;;;;;;;2.45;1.00;;;;;;;13.65;95.29;98101.59;5032923;28;20036;-38
2023/07/20 00:18:33;;;;;;;2.95;1.10;;;;;;;13.64;95.44;98099.09;5032336;28;20504;-37
2023/07/20 00:21:01;;;;;;;4.38;0.90;;;;;;;13.63;95.98;98094.78;5065697;28;20047;-37
2023/07/20 00:23:28;;;;;;;3.50;1.48;;;;;;;13.61;95.89;98092.28;5070298;28;20090;-37
2023/07/20 00:25:54;;;;;;;5.90;1.05;;;;;;;13.64;95.87;98093.84;5051791;28;20504;-37
2023/07/20 00:28:20;;;;;;;1.48;1.08;;;;;;;13.50;95.79;98076.59;5069837;28;20153;-37
2023/07/20 00:30:49;;;;;;;3.77;0.90;;;;;;;13.63;95.97;98100.84;5051804;28;20029;-37
2023/07/20 00:33:17;;;;;;;2.35;1.00;;;;;;;13.63;95.93;98107.84;5068896;28;20048;-39
2023/07/20 00:35:43;;;;;;;2.83;1.00;;;;;;;13.61;95.84;98105.34;5050696;28;20036;-38
2023/07/20 00:38:10;;;;;;;5.07;1.27;;;;;;;13.58;95.67;98095.97;5066078;28;20495;-37
2023/07/20 00:40:39;;;;;;;4.07;1.23;;;;;;;13.56;96.07;98100.44;5030999;28;20091;-38
2023/07/20 00:43:06;;;;;;;1.83;1.10;;;;;;;13.60;95.73;98110.69;5048517;28;20059;-38
2023/07/20 00:45:33;;;;;;;2.80;0.90;;;;;;;13.58;95.81;98108.19;5051681;28;20045;-39
2023/07/20 00:47:59;;;;;;;2.17;1.40;;;;;;;13.54;95.91;98115.41;5058846;28;20044;-38
2023/07/20 00:50:26;;;;;;;4.38;1.02;;;;;;;13.52;96.14;98111.22;5048308;28;20610;-37
2023/07/20 00:52:52;;;;;;;4.72;1.35;;;;;;;13.54;96.22;98117.19;5049624;28;20055;-37
2023/07/20 00:55:19;;;;;;;2.08;1.00;;;;;;;13.53;96.49;98116.34;5067582;28;20044;-39
2023/07/20 00:57:46;;;;;;;4.65;1.40;;;;;;;13.51;96.60;98109.56;5068157;28;20330;-37
2023/07/20 01:00:13;;;;;;;1.38;0.90;;;;;;;13.34;96.43;98087.28;5050391;28;20043;-37
2023/07/20 01:02:39;;;;;;;3.80;1.00;;;;;;;13.49;96.79;98108.84;5065870;28;20040;-37
2023/07/20 01:05:06;;;;;;;3.20;1.00;;;;;;;13.48;96.63;98117.63;5082806;28;20032;-37
2023/07/20 01:08:02;;;;;;;2.67;1.13;;;;;;;13.47;96.79;98119.41;5047746;28;20131;-37
2023/07/20 01:10:28;;;;;;;3.10;1.30;;;;;;;13.47;96.90;98119.41;5026198;28;20578;-37
2023/07/20 01:12:55;;;;;;;4.10;1.13;;;;;;;13.49;96.74;98106.25;5047235;28;20048;-37
2023/07/20 01:15:21;;;;;;;3.33;1.20;;;;;;;13.49;96.63;98124.53;5061054;28;20064;-38
2023/07/20 01:17:47;;;;;;;4.47;1.00;;;;;;;13.47;96.32;98110.72;5066341;28;20036;-37
2023/07/20 01:20:15;;;;;;;1.77;1.10;;;;;;;13.47;96.45;98113.34;5067665;28;20416;-37
2023/07/20 01:22:54;;;;;;;4.40;1.30;;;;;;;13.46;96.40;98122.94;5048265;28;20067;-38
2023/07/20 01:26:01;;;;;;;4.28;1.20;;;;;;;13.46;96.37;98116.88;5056416;28;20119;-38
2023/07/20 01:28:37;;;;;;;3.50;2.45;;;;;;;13.47;96.36;98118.56;4995280;28;20061;-38
2023/07/20 01:31:27;;;;;;;2.63;1.40;;;;;;;13.46;96.22;98117.72;5059502;28;20075;-37
2023/07/20 01:33:58;;;;;;;4.38;1.15;;;;;;;13.44;96.41;98124.00;5068875;28;20040;-37
2023/07/20 01:36:27;;;;;;;9.27;1.13;;;;;;;13.30;96.43;98093.66;5050460;28;20110;-38
2023/07/20 01:38:53;;;;;;;4.57;1.05;;;;;;;13.23;96.53;98086.38;5069174;28;20093;-37
2023/07/20 01:41:19;;;;;;;2.55;0.88;;;;;;;13.19;96.31;98071.88;5050719;28;20050;-37
2023/07/20 01:43:46;;;;;;;3.28;0.80;;;;;;;13.49;95.97;98132.34;5068157;28;20075;-37
2023/07/20 01:46:11;;;;;;;3.47;1.23;;;;;;;13.47;95.85;98115.94;5046940;28;20039;-42
2023/07/20 01:48:37;;;;;;;2.05;0.88;;;;;;;13.49;95.93;98117.53;5055021;28;20053;-37
2023/07/20 01:51:03;;;;;;;3.17;1.58;;;;;;;13.49;96.07;98116.69;5050128;28;20043;-38
2023/07/20 01:53:29;;;;;;;2.08;0.95;;;;;;;13.50;95.99;98119.16;4997776;28;20128;-38
2023/07/20 01:56:12;;;;;;;2.17;1.05;;;;;;;13.53;95.80;98116.34;5046039;28;20072;-38
2023/07/20 01:58:38;;;;;;;3.67;1.35;;;;;;;13.56;95.63;98115.28;5051058;28;20060;-38
2023/07/20 02:01:04;;;;;;;2.65;1.02;;;;;;;13.56;95.32;98110.91;5060783;28;20040;-37
2023/07/20 02:03:30;;;;;;;1.77;0.85;;;;;;;13.55;95.25;98114.44;5060222;28;20056;-38
2023/07/20 02:05:59;;;;;;;3.83;1.10;;;;;;;13.42;94.92;98094.56;5045895;28;20182;-38
2023/07/20 02:08:26;;;;;;;2.10;0.95;;;;;;;13.54;95.43;98112.81;5034705;28;20397;-37
2023/07/20 02:10:55;;;;;;;3.03;1.30;;;;;;;13.53;95.61;98111.13;5054992;28;20048;-38
2023/07/20 02:13:21;;;;;;;3.58;0.98;;;;;;;13.52;95.87;98114.69;5061173;28;20531;-38
2023/07/20 02:15:49;;;;;;;4.32;1.20;;;;;;;13.52;96.02;98117.28;5050135;28;20036;-38
2023/07/20 02:18:15;;;;;;;2.95;1.08;;;;;;;13.49;96.03;98112.31;5050559;28;20044;-37
2023/07/20 02:20:42;;;;;;;1.92;1.13;;;;;;;13.50;96.20;98113.13;5083637;28;20048;-38
2023/07/20 02:23:08;;;;;;;2.97;1.20;;;;;;;13.51;96.21;98118.22;5066623;28;20048;-38
2023/07/20 02:25:34;;;;;;;2.50;1.20;;;;;;;13.51;96.14;98130.44;5068093;28;20040;-37
2023/07/20 02:28:00;;;;;;;2.22;1.10;;;;;;;13.34;96.16;98102.94;5068118;28;20154;-37
2023/07/20 02:30:27;;;;;;;2.97;0.85;;;;;;;13.52;96.32;98126.91;5063366;28;20040;-37
2023/07/20 02:32:54;;;;;;;1.60;1.02;;;;;;;13.53;96.25;98118.97;5049865;28;20113;-38
2023/07/20 02:35:19;;;;;;;2.88;1.42;;;;;;;13.54;96.25;98122.41;5049894;28;20098;-38
2023/07/20 02:37:45;;;;;;;2.72;0.85;;;;;;;13.38;96.48;98100.94;5083615;28;20082;-39
2023/07/20 02:40:12;;;;;;;1.88;1.00;;;;;;;13.55;96.40;98132.72;5066844;28;20036;-37
2023/07/20 02:42:38;;;;;;;5.18;1.10;;;;;;;13.38;96.27;98112.22;5066545;28;20063;-37
2023/07/20 02:45:05;;;;;;;1.15;0.80;;;;;;;13.41;96.19;98109.38;5068137;28;20044;-38
2023/07/20 02:47:34;;;;;;;3.40;1.10;;;;;;;13.60;96.07;98137.66;5068296;28;20037;-38
2023/07/20 02:50:00;;;;;;;4.57;1.13;;;;;;;13.42;95.92;98108.44;5033437;28;20044;-38
2023/07/20 02:52:26;;;;;;;3.22;0.82;;;;;;;13.61;95.83;98141.91;5049341;28;20036;-38
2023/07/20 02:54:52;;;;;;;3.42;0.80;;;;;;;13.64;95.71;98149.53;5034014;28;20079;-38
2023/07/20 02:57:18;;;;;;;2.72;1.00;;;;;;;13.68;95.57;98150.97;5053587;28;20032;-38
2023/07/20 02:59:44;;;;;;;1.17;0.88;;;;;;;13.70;95.49;98148.25;5070348;28;20052;-38
2023/07/20 03:02:10;;;;;;;2.60;0.90;;;;;;;13.70;95.50;98149.09;5052956;28;20051;-38
2023/07/20 03:04:37;;;;;;;3.38;1.13;;;;;;;13.73;95.43;98150.66;5072201;28;20106;-38
2023/07/20 03:07:07;;;;;;;1.17;0.80;;;;;;;13.75;95.42;98147.00;5070153;28;20102;-39
2023/07/20 03:09:34;;;;;;;2.60;1.00;;;;;;;13.76;95.29;98142.59;5061108;28;20516;-37
2023/07/20 03:12:01;;;;;;;2.63;1.20;;;;;;;13.55;95.26;98109.22;5069310;28;20040;-37
2023/07/20 03:14:27;;;;;;;2.70;0.90;;;;;;;13.82;94.94;98140.38;5086904;28;20063;-38
2023/07/20 03:16:54;;;;;;;2.42;0.88;;;;;;;13.72;94.62;98133.31;5069655;28;20590;-38
2023/07/20 03:19:20;;;;;;;4.75;1.02;;;;;;;13.90;94.56;98150.28;5069837;28;20036;-37
2023/07/20 03:21:48;;;;;;;3.67;1.00;;;;;;;13.96;94.25;98161.13;5068629;28;20055;-37
2023/07/20 03:24:14;;;;;;;9.43;1.33;;;;;;;13.99;94.16;98157.44;5067333;28;20048;-37
2023/07/20 03:26:40;;;;;;;10.05;1.42;;;;;;;14.04;93.88;98162.31;5068857;28;20051;-37
2023/07/20 03:29:07;;;;;;;1.33;0.93;;;;;;;14.05;93.71;98159.63;5055321;28;20033;-37
2023/07/20 03:31:33;;;;;;;1.00;0.70;;;;;;;14.12;93.44;98152.16;5063575;28;20096;-37
2023/07/20 03:33:59;;;;;;;2.05;1.42;;;;;;;14.13;92.83;98162.50;5052806;28;20036;-37
2023/07/20 03:36:25;;;;;;;2.50;1.08;;;;;;;14.15;93.00;98154.53;5068375;28;20045;-37
2023/07/20 03:38:50;;;;;;;1.20;0.90;;;;;;;14.21;92.52;98162.78;5069947;28;20056;-38
2023/07/20 03:41:17;;;;;;;2.30;1.02;;;;;;;14.26;92.44;98159.81;5069486;28;20048;-37
2023/07/20 03:43:42;;;;;;;3.90;1.05;;;;;;;14.32;92.07;98154.16;5069048;28;20086;-37
2023/07/20 03:46:09;;;;;;;3.65;1.00;;;;;;;14.40;91.43;98164.91;5052756;28;20473;-37
2023/07/20 03:48:35;;;;;;;2.70;0.90;;;;;;;14.51;91.16;98159.69;5070486;28;20049;-38
2023/07/20 03:51:02;;;;;;;1.73;0.93;;;;;;;14.67;90.60;98156.78;5069470;28;20040;-38
2023/07/20 03:53:28;;;;;;;2.40;0.90;;;;;;;14.83;90.04;98159.91;5069962;28;20036;-37
2023/07/20 03:55:54;;;;;;;5.95;1.20;;;;;;;15.01;89.20;98166.38;5069632;28;20048;-37
2023/07/20 03:58:21;;;;;;;2.83;0.77;;;;;;;14.95;88.06;98124.13;5052734;28;20074;-37
2023/07/20 04:00:52;;;;;;;1.73;0.80;;;;;;;15.32;86.13;98166.63;5070551;28;20044;-37
2023/07/20 04:03:19;;;;;;;1.73;0.75;;;;;;;15.43;85.83;98169.22;5046555;28;20037;-38
2023/07/20 04:05:45;;;;;;;4.35;1.00;;;;;;;15.38;84.60;98145.19;5043373;28;20044;-37
2023/07/20 04:08:11;;;;;;;2.17;0.80;;;;;;;15.64;83.51;98168.41;5064170;28;20037;-37
2023/07/20 04:10:38;;;;;;;3.05;0.90;;;;;;;15.65;82.67;98171.84;5051044;28;20533;-38
2023/07/20 04:13:05;;;;;;;2.85;0.80;;;;;;;15.67;82.60;98167.31;5046041;28;20040;-38
2023/07/20 04:15:31;;;;;;;6.35;1.10;;;;;;;15.62;82.93;98161.63;5068655;28;20503;-37
2023/07/20 04:17:57;;;;;;;1.23;0.95;;;;;;;15.75;82.34;98172.81;5068440;28;20047;-37
2023/07/20 04:20:23;;;;;;;1.98;0.73;;;;;;;15.69;82.02;98147.09;5052128;28;20040;-38
2023/07/20 04:22:49;;;;;;;3.38;0.88;;;;;;;15.96;81.58;98167.63;5035184;28;20443;-38
2023/07/20 04:25:18;;;;;;;3.95;0.70;;;;;;;16.04;81.26;98163.44;5035263;28;20401;-39
2023/07/20 04:27:46;;;;;;;2.30;0.82;;;;;;;16.19;80.61;98168.38;5070043;28;20520;-39
2023/07/20 04:30:12;;;;;;;0.60;0.60;;;;;;;16.01;79.39;98142.72;5069332;28;20044;-38
2023/07/20 04:32:43;;;;;;;8.35;1.02;;;;;;;16.20;79.38;98165.66;5068447;28;20044;-38
2023/07/20 04:35:10;;;;;;;2.65;0.80;;;;;;;16.25;79.04;98170.50;5068297;28;20044;-40
2023/07/20 04:37:45;;;;;;;;;;;;;;;16.18;78.62;98166.72;5068739;28;20051;-38
2023/07/20 04:40:15;;;;;;;4.68;1.20;;;;;;;16.12;79.22;98175.09;5051821;28;19920;-38
2023/07/20 04:42:41;;;;;;;2.90;0.90;;;;;;;16.06;79.07;98172.03;5067430;28;20198;-38
2023/07/20 04:45:07;;;;;;;1.88;0.93;;;;;;;16.11;79.43;98169.03;5068291;28;20670;-38
2023/07/20 04:47:33;;;;;;;1.90;1.00;;;;;;;16.17;79.13;98176.41;5068556;28;20063;-38
2023/07/20 04:49:59;;;;;;;3.20;0.90;;;;;;;16.17;78.79;98175.56;5069243;28;20516;-39
2023/07/20 04:52:25;;;;;;;2.58;1.05;;;;;;;16.25;79.02;98178.38;5051042;28;20048;-38
2023/07/20 04:54:52;;;;;;;3.17;0.73;;;;;;;16.25;78.20;98173.13;5051495;28;20102;-38
2023/07/20 04:57:19;;;;;;;1.50;0.65;;;;;;;16.24;77.44;98174.09;5064671;28;20044;-38
2023/07/20 04:59:47;;;;;;;3.35;1.27;;;;;;;16.11;77.51;98150.66;5047555;28;20093;-38
2023/07/20 05:02:13;;;;;;;2.95;1.00;;;;;;;16.04;77.47;98139.84;5082759;28;20052;-38
2023/07/20 05:04:40;;;;;;;7.30;1.33;;;;;;;16.39;77.84;98181.53;5073265;28;20043;-38
2023/07/20 05:07:06;;;;;;;2.80;0.70;;;;;;;16.51;77.68;98179.69;5084758;28;20680;-39
2023/07/20 05:09:32;;;;;;;3.78;0.75;;;;;;;16.41;77.43;98147.31;5084668;28;20076;-38
2023/07/20 05:11:59;;;;;;;2.40;0.70;;;;;;;16.69;77.23;98180.84;5047532;28;20047;-38
2023/07/20 05:14:25;;;;;;;2.15;1.02;;;;;;;16.80;76.94;98180.75;5047826;28;20041;-38
2023/07/20 05:16:52;;;;;;;1.60;0.60;;;;;;;16.90;76.55;98184.28;5064009;28;20505;-38
2023/07/20 05:19:18;;;;;;;4.28;0.68;;;;;;;16.92;75.60;98179.75;5047306;28;20047;-38
2023/07/20 05:21:44;;;;;;;2.33;0.80;;;;;;;16.94;74.63;98175.22;5080225;28;20043;-38
2023/07/20 05:24:10;;;;;;;0.93;0.80;;;;;;;16.91;73.31;98199.06;5067040;28;20040;-38
2023/07/20 05:26:36;;;;;;;1.92;1.05;;;;;;;16.72;73.40;98143.00;5067630;28;20119;-38
2023/07/20 05:29:02;;;;;;;3.55;0.93;;;;;;;17.06;73.27;98198.78;5068754;28;20064;-38
2023/07/20 05:31:30;;;;;;;1.58;0.88;;;;;;;17.15;72.87;98193.56;5068780;28;20520;-38
2023/07/20 05:33:56;;;;;;;1.83;1.07;;;;;;;17.21;72.37;98184.34;5067001;28;20526;-38
2023/07/20 05:36:22;;;;;;;1.48;0.70;;;;;;;17.19;72.38;98165.25;5068745;28;20040;-39
2023/07/20 05:38:49;;;;;;;4.95;1.30;;;;;;;17.47;72.37;98185.56;5069371;28;20036;-39
2023/07/20 05:41:15;;;;;;;2.55;0.65;;;;;;;17.53;71.80;98171.06;5069004;28;20082;-36
2023/07/20 05:43:42;;;;;;;2.72;0.90;;;;;;;17.71;71.53;98186.09;5080298;28;20040;-38
2023/07/20 05:46:08;;;;;;;6.47;0.90;;;;;;;17.72;70.25;98184.28;5030726;28;20095;-38
2023/07/20 05:48:35;;;;;;;6.47;0.73;;;;;;;17.71;69.53;98185.25;5051901;28;20052;-39
2023/07/20 05:51:01;;;;;;;1.70;0.90;;;;;;;17.69;69.57;98160.91;5067118;28;20504;-38
2023/07/20 05:53:27;;;;;;;2.70;0.65;;;;;;;17.91;69.14;98183.50;5068557;28;20052;-38
2023/07/20 05:55:54;;;;;;;2.28;0.73;;;;;;;17.93;68.23;98165.78;5067120;28;20115;-38
2023/07/20 05:58:20;;;;;;;1.60;0.63;;;;;;;18.07;67.64;98182.00;5067957;28;20401;-39
2023/07/20 06:00:50;;;;;;;2.03;0.90;;;;;;;18.12;67.63;98186.84;5048987;28;20101;-38
2023/07/20 06:03:16;;;;;;;1.63;0.82;;;;;;;18.22;67.43;98185.06;5067132;28;20047;-38
2023/07/20 06:05:43;;;;;;;2.42;0.68;;;;;;;18.26;66.52;98181.22;5065138;28;20037;-38
2023/07/20 06:08:09;;;;;;;3.03;1.05;;;;;;;18.43;66.45;98190.19;5068319;28;20131;-38
2023/07/20 06:10:35;;;;;;;2.17;0.93;;;;;;;18.44;65.55;98187.44;5068296;28;20547;-38
2023/07/20 06:13:01;;;;;;;5.00;0.90;;;;;;;18.50;65.53;98193.94;5033697;28;20099;-38
2023/07/20 06:15:28;;;;;;;1.65;0.77;;;;;;;18.53;64.33;98193.66;5045982;28;20040;-38
2023/07/20 06:17:55;;;;;;;3.45;0.75;;;;;;;18.48;64.01;98164.31;5066701;28;20097;-38
2023/07/20 06:20:22;;;;;;;1.95;0.80;;;;;;;18.82;63.28;98197.16;5066308;28;20070;-38
2023/07/20 06:22:48;;;;;;;5.07;0.77;;;;;;;18.85;62.47;98202.13;5048843;28;20074;-41
2023/07/20 06:25:14;;;;;;;3.50;0.63;;;;;;;19.07;62.21;98198.34;5066343;28;20508;-38
2023/07/20 06:27:40;;;;;;;2.78;0.98;;;;;;;19.12;61.52;98190.84;5066394;28;20053;-39
2023/07/20 06:30:06;;;;;;;4.97;1.30;;;;;;;19.40;61.36;98200.50;5053811;28;20044;-39
2023/07/20 06:32:32;;;;;;;3.70;1.42;;;;;;;19.62;59.92;98201.13;5071558;28;20033;-38
2023/07/20 06:34:58;;;;;;;4.10;1.13;;;;;;;19.83;59.08;98189.38;5070018;28;20085;-39
2023/07/20 06:37:25;;;;;;;1.48;0.70;;;;;;;20.23;57.80;98201.34;5037298;28;20475;-38
2023/07/20 06:39:50;;;;;;;3.05;0.70;;;;;;;20.68;56.39;98196.00;5071886;28;20043;-39
2023/07/20 06:42:16;;;;;;;3.47;0.90;;;;;;;21.16;55.37;98203.50;5069209;28;20048;-39
2023/07/20 06:44:43;;;;;;;5.63;0.85;;;;;;;21.72;54.49;98197.69;5055175;28;20041;-39
2023/07/20 06:47:09;;;;;;;2.22;0.85;;;;;;;22.75;52.83;98177.94;5069626;28;20098;-38
2023/07/20 06:49:34;;;;;;;8.63;1.00;;;;;;;23.22;50.09;98192.16;5071285;28;20094;-39
2023/07/20 06:52:01;;;;;;;1.20;0.60;;;;;;;24.39;47.98;98194.03;5070330;28;20048;-38
2023/07/20 06:54:27;;;;;;;2.85;0.90;;;;;;;25.64;46.50;98202.25;5069445;28;20036;-38
2023/07/20 06:56:53;;;;;;;3.60;0.73;;;;;;;26.85;43.96;98202.41;5071701;28;20036;-38
2023/07/20 06:59:18;;;;;;;5.75;0.85;;;;;;;27.23;40.69;98178.94;5069446;28;20066;-39
2023/07/20 07:01:44;;;;;;;2.97;0.70;;;;;;;27.18;39.17;98189.38;5065111;28;20051;-38
2023/07/20 07:04:10;;;;;;;1.08;0.80;;;;;;;27.67;37.44;98199.16;5066037;28;20067;-39
2023/07/20 07:06:37;;;;;;;4.47;0.80;;;;;;;28.01;35.95;98199.09;5068405;28;20045;-38
2023/07/20 07:09:03;;;;;;;0.90;0.68;;;;;;;28.38;35.55;98205.84;5069921;28;20089;-40
2023/07/20 07:11:30;;;;;;;1.30;0.60;;;;;;;28.64;34.79;98199.72;5061959;28;20045;-39
2023/07/20 07:13:56;;;;;;;1.42;0.63;;;;;;;29.71;33.67;98208.38;5071044;28;20040;-39
2023/07/20 07:16:23;;;;;;;1.38;0.80;;;;;;;30.80;32.32;98194.03;5070533;28;20499;-39
2023/07/20 07:18:50;;;;;;;1.45;0.82;;;;;;;32.26;30.80;98205.84;5053695;28;20047;-38
2023/07/20 07:21:16;;;;;;;3.77;0.80;;;;;;;32.80;29.51;98204.91;5068627;28;20045;-38
2023/07/20 07:23:43;;;;;;;3.35;1.30;;;;;;;31.37;29.98;98203.69;5070104;28;20047;-39
2023/07/20 07:26:09;;;;;;;4.20;0.98;;;;;;;31.82;29.54;98207.00;5068760;28;20562;-38
2023/07/20 07:28:36;;;;;;;4.68;1.25;;;;;;;32.01;28.88;98205.94;5047061;28;20037;-39
2023/07/20 07:31:06;;;;;;;2.20;0.80;;;;;;;31.91;29.05;98203.78;5067150;28;20534;-38
2023/07/20 07:33:32;;;;;;;1.63;0.90;;;;;;;32.39;28.08;98205.69;5069342;28;20048;-38
2023/07/20 07:35:58;;;;;;;2.78;0.88;;;;;;;32.24;28.24;98184.53;5071201;28;20036;-38
2023/07/20 07:38:24;;;;;;;1.05;0.80;;;;;;;32.20;27.51;98198.69;5069334;28;20032;-39
2023/07/20 07:40:50;;;;;;;1.60;0.90;;;;;;;31.53;28.36;98197.75;5085676;28;20545;-39
2023/07/20 07:43:16;;;;;;;1.45;0.73;;;;;;;31.46;27.83;98197.00;5068974;28;20071;-39
2023/07/20 07:45:42;;;;;;;2.83;0.82;;;;;;;31.85;27.33;98201.16;5069141;28;20067;-39
2023/07/20 07:48:11;;;;;;;5.00;0.82;;;;;;;32.45;26.81;98202.03;5050785;28;20041;-39
2023/07/20 07:50:39;;;;;;;0.93;0.50;;;;;;;32.60;26.71;98202.47;5068326;28;20194;-38
2023/07/20 07:53:05;;;;;;;2.80;0.70;;;;;;;31.41;28.07;98205.72;5034123;28;20055;-37
2023/07/20 07:55:31;;;;;;;3.38;0.93;;;;;;;30.06;29.71;98208.88;5068665;28;20060;-38
2023/07/20 07:57:57;;;;;;;1.75;0.60;;;;;;;29.08;31.55;98207.19;5068662;28;20036;-37
2023/07/20 08:00:23;;;;;;;1.98;0.95;;;;;;;28.50;32.45;98201.56;5069621;28;20048;-37
2023/07/20 08:02:50;;;;;;;0.90;0.70;;;;;;;28.26;32.63;98204.78;5068283;28;20032;-38
2023/07/20 08:05:16;;;;;;;1.65;0.60;;;;;;;27.73;32.86;98204.53;5065755;28;20051;-38
2023/07/20 08:07:42;;;;;;;2.92;0.80;;;;;;;27.14;33.89;98193.44;5065075;28;20424;-37
2023/07/20 08:10:08;;;;;;;2.72;1.02;;;;;;;27.60;33.40;98199.13;5069446;28;20044;-38
2023/07/20 08:12:34;;;;;;;2.40;0.73;;;;;;;26.65;34.60;98182.72;5068126;28;20082;-39
2023/07/20 08:15:00;;;;;;;1.58;0.70;;;;;;;26.41;34.65;98210.59;5068257;28;20036;-38
2023/07/20 08:17:26;;;;;;;3.72;0.85;;;;;;;25.86;35.69;98202.31;5068507;28;20052;-37
2023/07/20 08:19:52;;;;;;;2.33;1.00;;;;;;;26.41;35.36;98173.28;5069605;28;20166;-39
2023/07/20 08:22:19;;;;;;;1.75;0.77;;;;;;;27.84;33.49;98205.00;5058744;28;20108;-36
2023/07/20 08:24:45;;;;;;;4.78;0.98;;;;;;;29.06;31.54;98210.06;5056332;28;20049;-37
2023/07/20 08:27:11;;;;;;;1.77;1.00;;;;;;;29.63;30.75;98213.94;5062690;28;20041;-37
2023/07/20 08:29:37;;;;;;;3.95;1.00;;;;;;;28.79;31.66;98204.91;5059053;28;20036;-37
2023/07/20 08:32:04;;;;;;;4.68;1.10;;;;;;;29.84;30.66;98221.72;5062643;28;20055;-38
2023/07/20 08:34:30;;;;;;;2.10;0.90;;;;;;;30.04;30.19;98207.47;5043919;28;20148;-38
2023/07/20 08:36:57;;;;;;;2.97;1.08;;;;;;;28.66;31.25;98186.97;5059886;28;20032;-38
2023/07/20 08:39:24;;;;;;;1.60;0.85;;;;;;;28.52;32.01;98204.84;5065996;28;20032;-38
2023/07/20 08:41:51;;;;;;;4.72;1.15;;;;;;;28.50;32.41;98217.59;5059505;28;20508;-37
2023/07/20 08:44:17;;;;;;;1.80;0.83;;;;;;;28.29;32.07;98176.81;5066481;28;20074;-37
2023/07/20 08:46:44;;;;;;;1.40;0.95;;;;;;;28.77;32.02;98199.78;5062322;28;20802;-37
2023/07/20 08:49:11;;;;;;;2.97;0.90;;;;;;;28.70;32.05;98206.09;5061898;28;20047;-38
2023/07/20 08:51:38;;;;;;;2.28;1.00;;;;;;;27.61;33.51;98190.09;5064770;28;20101;-39
2023/07/20 08:54:04;;;;;;;2.92;1.00;;;;;;;27.16;34.13;98204.75;5066189;28;20132;-39
2023/07/20 08:56:31;;;;;;;6.00;1.25;;;;;;;26.63;35.47;98223.94;5053199;28;20140;-39
2023/07/20 08:58:57;;;;;;;3.00;0.95;;;;;;;25.91;36.34;98227.38;5064028;28;20041;-38
2023/07/20 09:01:23;;;;;;;3.85;1.13;;;;;;;26.32;36.54;98233.06;5053661;28;20500;-38
2023/07/20 09:03:49;;;;;;;4.72;1.77;;;;;;;26.55;36.47;98228.38;5068779;28;20068;-38
2023/07/20 09:06:15;;;;;;;3.63;0.90;;;;;;;27.94;35.17;98226.81;5066944;28;20092;-39
2023/07/20 09:08:42;;;;;;;3.17;1.10;;;;;;;28.01;34.76;98200.94;5033135;28;20063;-44
2023/07/20 09:11:11;;;;;;;3.25;1.10;;;;;;;27.12;35.98;98194.63;5062482;28;20127;-39
2023/07/20 09:13:38;;;;;;;5.40;1.30;;;;;;;27.87;35.38;98224.13;5061736;28;20180;-38
2023/07/20 09:16:04;;;;;;;3.78;1.30;;;;;;;29.69;32.95;98207.75;5062251;28;20040;-39
2023/07/20 09:18:32;;;;;;;7.88;1.65;;;;;;;31.90;30.06;98237.06;5059726;28;20048;-37
2023/07/20 09:21:02;;;;;;;3.63;1.10;;;;;;;32.87;28.58;98229.03;5062089;28;20045;-38
2023/07/20 09:23:36;;;;;;;3.88;0.80;;;;;;;30.94;30.09;98230.47;5076572;28;20072;-40
2023/07/20 09:26:20;;;;;;;2.72;0.88;;;;;;;28.37;33.21;98225.56;5056861;28;20036;-40
2023/07/20 09:28:52;;;;;;;1.52;0.90;;;;;;;28.38;33.83;98229.06;5058759;28;20094;-41
2023/07/20 09:31:19;;;;;;;3.97;1.13;;;;;;;30.18;32.10;98230.50;5054967;28;20114;-41
2023/07/20 09:33:46;;;;;;;5.07;0.88;;;;;;;32.92;29.27;98232.69;5055737;28;20047;-48
2023/07/20 09:36:12;;;;;;;3.63;1.33;;;;;;;33.87;28.44;98235.19;5040256;28;20081;-41
2023/07/20 09:38:42;;;;;;;4.03;1.02;;;;;;;31.96;28.89;98230.81;5061038;28;20512;-43
2023/07/20 09:41:08;;;;;;;3.72;0.90;;;;;;;29.45;31.86;98230.69;5064872;28;20048;-40
2023/07/20 09:43:34;;;;;;;2.40;0.80;;;;;;;27.71;34.85;98189.72;5054292;28;20033;-40
2023/07/20 09:46:00;;;;;;;2.72;0.93;;;;;;;27.27;36.54;98230.88;5052009;28;20563;-41
2023/07/20 09:48:26;;;;;;;2.75;1.00;;;;;;;26.34;37.85;98241.66;5062728;28;20077;-41
2023/07/20 09:50:53;;;;;;;4.25;1.02;;;;;;;25.12;40.46;98247.47;5053027;28;20040;-42
2023/07/20 09:53:20;;;;;;;2.22;0.90;;;;;;;24.66;42.97;98270.56;5071459;28;20603;-39
2023/07/20 09:55:47;;;;;;;4.78;1.52;;;;;;;23.80;46.88;98262.66;5058580;28;20095;-40
2023/07/20 09:58:15;;;;;;;3.83;1.20;;;;;;;23.24;50.92;98258.25;5057901;28;20059;-39
2023/07/20 10:00:49;;;;;;;4.80;1.75;;;;;;;23.65;52.20;98267.03;5052595;28;20420;-40
2023/07/20 10:03:20;;;;;;;4.10;1.38;;;;;;;26.44;48.19;98263.50;5054910;28;20048;-39
2023/07/20 10:06:08;;;;;;;3.88;1.40;;;;;;;28.77;42.31;98250.59;5061084;28;20053;-40
2023/07/20 10:08:39;;;;;;;3.90;1.30;;;;;;;30.51;36.95;98249.97;5052935;28;20048;-41
2023/07/20 10:11:07;;;;;;;2.53;1.25;;;;;;;32.81;33.13;98248.78;5051817;28;20520;-40
2023/07/20 10:13:38;;;;;;;5.38;1.20;;;;;;;33.57;31.52;98255.00;5059461;28;20040;-40
2023/07/20 10:16:09;;;;;;;3.78;1.58;;;;;;;31.14;33.51;98241.94;5064494;28;20040;-41
2023/07/20 10:18:42;;;;;;;4.25;1.20;;;;;;;29.56;35.20;98225.72;5057935;28;20079;-41
2023/07/20 10:21:09;;;;;;;3.80;1.42;;;;;;;28.86;36.51;98244.03;5049331;28;20040;-41
2023/07/20 10:23:36;;;;;;;2.60;1.00;;;;;;;28.55;38.02;98246.41;5055605;28;20083;-42
2023/07/20 10:26:02;;;;;;;3.33;1.40;;;;;;;28.14;38.81;98236.59;5051931;28;20408;-42
2023/07/20 10:28:28;;;;;;;2.42;0.98;;;;;;;27.15;38.40;98245.78;5071333;28;20091;-41
2023/07/20 10:30:54;;;;;;;2.05;1.30;;;;;;;25.70;39.75;98233.44;5055606;28;20043;-42
2023/07/20 10:33:21;;;;;;;2.20;1.23;;;;;;;24.88;41.12;98243.19;5066175;28;20048;-43
2023/07/20 10:35:52;;;;;;;4.40;1.30;;;;;;;24.60;42.15;98249.19;5065397;28;20044;-41
2023/07/20 10:38:18;;;;;;;1.88;1.08;;;;;;;23.88;44.31;98235.25;5058226;28;20036;-42
2023/07/20 10:40:54;;;;;;;3.67;1.08;;;;;;;23.72;43.99;98240.63;5061051;28;20110;-40
2023/07/20 10:43:20;;;;;;;3.63;1.38;;;;;;;23.69;44.12;98235.66;5063721;28;20044;-40
2023/07/20 10:45:51;;;;;;;2.50;1.00;;;;;;;23.50;44.20;98223.63;5063728;28;20049;-41
2023/07/20 10:48:22;;;;;;;2.55;1.20;;;;;;;23.83;43.67;98235.78;5064557;28;20054;-40
2023/07/20 10:51:14;;;;;;;3.63;1.20;;;;;;;25.15;41.61;98236.50;5059559;28;20036;-38
2023/07/20 10:53:40;;;;;;;1.58;1.15;;;;;;;26.63;39.51;98240.78;5070168;28;20134;-43
2023/07/20 10:56:14;;;;;;;4.20;1.30;;;;;;;27.91;37.69;98211.19;5073359;28;20159;-40
2023/07/20 10:58:41;;;;;;;5.45;1.60;;;;;;;30.35;34.21;98218.25;5066365;28;20036;-53
2023/07/20 11:01:07;;;;;;;4.30;1.20;;;;;;;31.43;33.17;98241.25;5059915;28;20051;-58
2023/07/20 11:03:39;;;;;;;3.08;1.60;;;;;;;32.05;32.14;98238.56;5065230;28;20127;-55
2023/07/20 11:06:24;;;;;;;2.85;1.38;;;;;;;31.45;31.96;98241.88;5061264;28;20052;-65
2023/07/20 11:09:14;;;;;;;1.75;1.48;;;;;;;30.86;32.68;98241.50;5063625;28;20066;-62
2023/07/20 11:11:41;;;;;;;2.15;1.48;;;;;;;32.08;31.36;98236.25;5058433;28;20028;-60
2023/07/20 11:14:11;;;;;;;3.22;1.30;;;;;;;32.80;30.08;98245.28;5065026;28;20032;-61
2023/07/20 11:16:45;;;;;;;2.40;1.00;;;;;;;31.05;31.28;98240.53;5065723;28;20054;-64
2023/07/20 11:19:17;;;;;;;2.92;1.40;;;;;;;29.15;34.01;98261.56;5067040;28;20052;-60
2023/07/20 11:21:45;;;;;;;2.58;1.40;;;;;;;28.31;35.97;98276.34;5068158;28;20416;-59
2023/07/20 11:24:13;;;;;;;2.20;1.40;;;;;;;27.19;36.42;98260.41;5067597;28;20041;-65
2023/07/20 11:26:42;;;;;;;3.30;1.00;;;;;;;26.05;37.50;98273.66;5058994;28;20044;-62
2023/07/20 11:29:08;;;;;;;2.28;1.25;;;;;;;24.74;39.32;98270.53;5061829;28;20040;-62
2023/07/20 11:31:39;;;;;;;3.55;1.50;;;;;;;24.03;41.21;98260.06;5060906;28;20135;-63
2023/07/20 11:34:05;;;;;;;5.03;1.10;;;;;;;23.80;41.86;98259.19;5062283;28;20051;-59
2023/07/20 11:36:31;;;;;;;7.30;1.52;;;;;;;23.61;42.11;98258.56;5063258;28;20374;-61